createdAt,value
2018-09-28T00:00:27.788Z,98912.72
2018-09-28T00:02:56.304Z,98915.37
2018-09-28T00:05:24.606Z,98915.18
2018-09-28T00:07:53.312Z,98916.46
2018-09-28T00:10:21.636Z,98919.88
2018-09-28T00:12:49.961Z,98914.62
2018-09-28T00:15:18.286Z,98918.45
2018-09-28T00:17:46.592Z,98907.76
2018-09-28T00:20:14.922Z,98914.18
2018-09-28T00:22:43.320Z,98913.84
2018-09-28T00:25:11.763Z,98912.80
2018-09-28T00:27:40.088Z,98913.66
2018-09-28T00:30:08.411Z,98904.32
2018-09-28T00:32:37.033Z,98902.53
2018-09-28T00:35:05.658Z,98899.86
2018-09-28T00:37:34.004Z,98891.45
2018-09-28T00:40:02.462Z,98893.05
2018-09-28T00:42:30.827Z,98894.48
2018-09-28T00:44:59.152Z,98894.36
2018-09-28T00:47:27.681Z,98894.97
2018-09-28T00:49:56.716Z,98886.16
2018-09-28T00:52:25.104Z,98879.84
2018-09-28T00:54:53.403Z,98874.75
2018-09-28T00:57:21.876Z,98872.61
2018-09-28T00:59:50.258Z,98871.64
2018-09-28T01:02:18.672Z,98869.52
2018-09-28T01:04:46.984Z,98866.91
2018-09-28T01:07:15.336Z,98868.16
2018-09-28T01:09:43.878Z,98863.69
2018-09-28T01:12:12.405Z,98869.05
2018-09-28T01:14:40.782Z,98867.35
2018-09-28T01:17:09.087Z,98857.92
2018-09-28T01:19:37.428Z,98862.62
2018-09-28T01:22:05.859Z,98858.17
2018-09-28T01:24:34.316Z,98860.58
2018-09-28T01:27:02.594Z,98857.62
2018-09-28T01:29:30.895Z,98856.55
2018-09-28T01:31:59.259Z,98853.55
2018-09-28T01:34:27.646Z,98849.64
2018-09-28T01:36:56.012Z,98844.75
2018-09-28T01:39:24.332Z,98847.98
2018-09-28T01:41:52.698Z,98842.57
2018-09-28T01:44:21.150Z,98840.03
2018-09-28T01:46:49.572Z,98834.41
2018-09-28T01:49:17.899Z,98838.97
2018-09-28T01:51:46.333Z,98839.36
2018-09-28T01:54:14.750Z,98838.27
2018-09-28T01:56:43.056Z,98830.50
2018-09-28T01:59:11.376Z,98829.97
2018-09-28T02:01:39.723Z,98826.59
2018-09-28T02:06:58.506Z,98814.70
2018-09-28T02:09:26.955Z,98816.91
2018-09-28T02:11:55.229Z,98817.47
2018-09-28T02:14:23.617Z,98816.34
2018-09-28T02:16:52.134Z,98820.37
2018-09-28T02:19:20.475Z,98818.50
2018-09-28T02:21:48.818Z,98817.03
2018-09-28T02:24:17.154Z,98819.67
2018-09-28T02:26:45.782Z,98809.34
2018-09-28T02:29:14.113Z,98815.16
2018-09-28T02:31:42.520Z,98817.40
2018-09-28T02:34:10.844Z,98808.23
2018-09-28T02:36:39.189Z,98793.24
2018-09-28T02:39:08.004Z,98801.88
2018-09-28T02:41:36.354Z,98801.62
2018-09-28T02:44:04.822Z,98797.17
2018-09-28T02:46:33.113Z,98803.61
2018-09-28T02:49:02.093Z,98804.93
2018-09-28T02:51:30.961Z,98795.41
2018-09-28T02:53:59.273Z,98803.16
2018-09-28T02:56:28.623Z,98800.97
2018-09-28T02:58:57.082Z,98787.88
2018-09-28T03:01:25.392Z,98794.47
2018-09-28T03:03:54.034Z,98799.84
2018-09-28T03:06:22.442Z,98788.39
2018-09-28T03:08:50.895Z,98789.87
2018-09-28T03:11:19.224Z,98784.85
2018-09-28T03:13:47.508Z,98782.42
2018-09-28T03:16:15.973Z,98789.44
2018-09-28T03:18:44.349Z,98790.30
2018-09-28T03:21:12.756Z,98793.09
2018-09-28T03:23:41.080Z,98792.43
2018-09-28T03:26:09.406Z,98793.20
2018-09-28T03:28:37.715Z,98796.02
2018-09-28T03:31:06.014Z,98789.58
2018-09-28T03:33:34.647Z,98789.73
2018-09-28T03:36:02.980Z,98788.92
2018-09-28T03:38:32.384Z,98793.72
2018-09-28T03:41:00.631Z,98791.42
2018-09-28T03:43:29.012Z,98789.79
2018-09-28T03:45:57.787Z,98790.55
2018-09-28T03:48:26.140Z,98784.45
2018-09-28T03:50:54.583Z,98788.41
2018-09-28T03:53:22.984Z,98785.39
2018-09-28T03:55:51.514Z,98781.46
2018-09-28T03:58:19.935Z,98786.08
2018-09-28T04:00:48.334Z,98784.80
2018-09-28T04:03:16.723Z,98786.77
2018-09-28T04:05:45.094Z,98785.27
2018-09-28T04:08:13.392Z,98787.50
2018-09-28T04:10:41.920Z,98783.69
2018-09-28T04:13:10.973Z,98784.66
2018-09-28T04:15:39.309Z,98780.33
2018-09-28T04:18:07.569Z,98788.19
2018-09-28T04:20:35.878Z,98786.12
2018-09-28T04:23:04.241Z,98787.05
2018-09-28T04:25:32.521Z,98784.16
2018-09-28T04:28:01.000Z,98785.73
2018-09-28T04:30:29.331Z,98785.22
2018-09-28T04:32:58.219Z,98781.70
2018-09-28T04:35:26.556Z,98778.91
2018-09-28T04:37:55.082Z,98782.88
2018-09-28T04:40:23.532Z,98785.22
2018-09-28T04:42:51.820Z,98788.95
2018-09-28T04:45:20.221Z,98789.05
2018-09-28T04:47:48.488Z,98791.33
2018-09-28T04:50:17.048Z,98797.92
2018-09-28T04:52:45.349Z,98794.33
2018-09-28T04:55:13.656Z,98796.64
2018-09-28T04:57:42.013Z,98800.52
2018-09-28T05:00:10.798Z,98794.94
2018-09-28T05:02:39.279Z,98802.52
2018-09-28T05:05:07.749Z,98803.28
2018-09-28T05:07:36.073Z,98798.95
2018-09-28T05:10:04.756Z,98801.02
2018-09-28T05:12:33.181Z,98804.42
2018-09-28T05:15:01.486Z,98800.23
2018-09-28T05:17:29.818Z,98804.98
2018-09-28T05:19:58.153Z,98812.84
2018-09-28T05:22:26.413Z,98800.64
2018-09-28T05:24:54.737Z,98794.61
2018-09-28T05:27:23.165Z,98799.61
2018-09-28T05:29:51.423Z,98800.20
2018-09-28T05:32:19.888Z,98800.03
2018-09-28T05:34:48.224Z,98805.02
2018-09-28T05:37:16.764Z,98802.44
2018-09-28T05:39:45.056Z,98799.39
2018-09-28T05:42:13.358Z,98813.60
2018-09-28T05:44:41.831Z,98810.92
2018-09-28T05:47:10.153Z,98814.34
2018-09-28T05:49:38.544Z,98816.92
2018-09-28T05:52:06.918Z,98823.42
2018-09-28T05:54:35.971Z,98820.88
2018-09-28T05:57:04.294Z,98818.03
2018-09-28T05:59:37.784Z,98827.20
2018-09-28T06:02:11.679Z,98825.30
2018-09-28T06:04:50.879Z,98838.84
2018-09-28T06:07:19.297Z,98843.78
2018-09-28T06:09:47.646Z,98843.92
2018-09-28T06:12:15.961Z,98841.48
2018-09-28T06:14:44.548Z,98845.90
2018-09-28T06:17:12.902Z,98839.14
2018-09-28T06:19:41.278Z,98848.29
2018-09-28T06:22:09.667Z,98846.39
2018-09-28T06:24:38.031Z,98849.64
2018-09-28T06:27:06.745Z,98845.38
2018-09-28T06:29:35.104Z,98836.69
2018-09-28T06:32:03.423Z,98848.77
2018-09-28T06:34:31.832Z,98834.53
2018-09-28T06:37:00.302Z,98835.09
2018-09-28T06:39:28.744Z,98839.46
2018-09-28T06:41:57.194Z,98842.01
2018-09-28T06:44:25.472Z,98847.92
2018-09-28T06:46:53.972Z,98851.38
2018-09-28T06:49:22.309Z,98847.46
2018-09-28T06:51:50.614Z,98854.31
2018-09-28T06:54:19.230Z,98852.98
2018-09-28T06:56:47.632Z,98859.22
2018-09-28T06:59:16.105Z,98860.39
2018-09-28T07:01:44.381Z,98860.93
2018-09-28T07:04:12.686Z,98864.31
2018-09-28T07:06:40.972Z,98868.05
2018-09-28T07:09:11.462Z,98879.13
2018-09-28T07:11:39.729Z,98876.06
2018-09-28T07:14:08.474Z,98877.00
2018-09-28T07:16:36.911Z,98877.40
2018-09-28T07:19:05.235Z,98874.38
2018-09-28T07:21:33.498Z,98880.78
2018-09-28T07:24:02.035Z,98877.34
2018-09-28T07:26:30.375Z,98869.67
2018-09-28T07:28:58.876Z,98872.17
2018-09-28T07:31:27.142Z,98876.47
2018-09-28T07:33:55.522Z,98882.45
2018-09-28T07:36:24.019Z,98880.22
2018-09-28T07:38:52.433Z,98886.13
2018-09-28T07:41:20.895Z,98884.21
2018-09-28T07:43:49.598Z,98888.14
2018-09-28T07:46:17.947Z,98885.14
2018-09-28T07:48:46.273Z,98885.34
2018-09-28T07:51:14.584Z,98886.72
2018-09-28T07:53:42.909Z,98890.18
2018-09-28T07:56:11.239Z,98888.41
2018-09-28T07:58:39.701Z,98889.52
2018-09-28T08:01:08.423Z,98882.46
2018-09-28T08:03:37.251Z,98887.80
2018-09-28T08:06:05.675Z,98885.73
2018-09-28T08:08:34.113Z,98881.67
2018-09-28T08:11:02.520Z,98875.92
2018-09-28T08:13:31.325Z,98877.03
2018-09-28T08:15:59.903Z,98884.08
2018-09-28T08:18:28.328Z,98879.96
2018-09-28T08:20:56.722Z,98885.44
2018-09-28T08:23:25.334Z,98881.96
2018-09-28T08:25:53.628Z,98875.44
2018-09-28T08:28:22.500Z,98878.70
2018-09-28T08:30:50.848Z,98875.09
2018-09-28T08:33:19.164Z,98878.50
2018-09-28T08:35:47.504Z,98882.81
2018-09-28T08:38:15.942Z,98883.59
2018-09-28T08:40:44.404Z,98882.52
2018-09-28T08:43:12.753Z,98879.53
2018-09-28T08:45:41.013Z,98880.94
2018-09-28T08:48:09.580Z,98884.94
2018-09-28T08:50:38.144Z,98888.91
2018-09-28T08:53:06.498Z,98887.30
2018-09-28T08:55:34.935Z,98900.26
2018-09-28T08:58:03.270Z,98898.80
2018-09-28T09:00:31.676Z,98898.02
2018-09-28T09:03:00.054Z,98896.94
2018-09-28T09:05:28.312Z,98906.13
2018-09-28T09:07:56.772Z,98900.72
2018-09-28T09:10:25.154Z,98900.52
2018-09-28T09:12:53.630Z,98896.20
2018-09-28T09:15:22.003Z,98890.63
2018-09-28T09:17:50.467Z,98891.56
2018-09-28T09:20:18.728Z,98894.00
2018-09-28T09:22:47.381Z,98898.48
2018-09-28T09:25:15.700Z,98895.64
2018-09-28T09:27:44.029Z,98890.83
2018-09-28T09:30:12.495Z,98892.25
2018-09-28T09:32:40.789Z,98890.17
2018-09-28T09:35:09.342Z,98891.70
2018-09-28T09:37:37.774Z,98890.52
2018-09-28T09:40:06.557Z,98887.80
2018-09-28T09:42:35.062Z,98884.53
2018-09-28T09:45:03.370Z,98884.22
2018-09-28T09:47:31.955Z,98880.14
2018-09-28T09:50:00.415Z,98878.28
2018-09-28T09:54:03.819Z,98870.89
2018-09-28T09:56:32.279Z,98874.93
2018-09-28T09:59:00.736Z,98868.93
2018-09-28T10:01:34.419Z,98869.06
2018-09-28T10:04:07.951Z,98871.14
2018-09-28T10:06:36.453Z,98852.77
2018-09-28T10:09:08.531Z,98856.84
2018-09-28T10:11:37.122Z,98851.63
2018-09-28T10:14:05.564Z,98855.27
2018-09-28T10:16:33.935Z,98849.38
2018-09-28T10:19:02.274Z,98859.92
2018-09-28T10:21:31.482Z,98853.98
2018-09-28T10:24:00.110Z,98849.77
2018-09-28T10:26:28.744Z,98842.20
2018-09-28T10:28:57.145Z,98845.92
2018-09-28T10:31:25.549Z,98843.65
2018-09-28T10:33:54.155Z,98844.92
2018-09-28T10:36:22.590Z,98845.03
2018-09-28T10:38:51.672Z,98844.00
2018-09-28T10:41:19.951Z,98839.64
2018-09-28T10:43:48.293Z,98833.77
2018-09-28T10:46:16.651Z,98835.33
2018-09-28T10:48:47.155Z,98840.88
2018-09-28T10:51:15.867Z,98832.59
2018-09-28T10:53:44.150Z,98819.66
2018-09-28T10:56:12.636Z,98829.33
2018-09-28T10:58:41.765Z,98826.18
2018-09-28T11:01:10.363Z,98823.60
2018-09-28T11:03:38.817Z,98817.20
2018-09-28T11:06:07.345Z,98819.86
2018-09-28T11:08:36.796Z,98812.77
2018-09-28T11:11:05.130Z,98818.66
2018-09-28T11:13:33.432Z,98824.08
2018-09-28T11:16:01.757Z,98812.66
2018-09-28T11:18:30.052Z,98811.45
2018-09-28T11:20:58.368Z,98810.81
2018-09-28T11:23:27.785Z,98803.52
2018-09-28T11:25:56.174Z,98798.45
2018-09-28T11:28:24.632Z,98794.67
2018-09-28T11:30:52.922Z,98788.84
2018-09-28T11:33:21.311Z,98792.89
2018-09-28T11:35:49.723Z,98797.33
2018-09-28T11:38:18.066Z,98792.03
2018-09-28T11:40:46.560Z,98779.45
2018-09-28T11:43:15.035Z,98781.61
2018-09-28T11:45:43.400Z,98778.73
2018-09-28T11:48:11.843Z,98782.63
2018-09-28T11:50:40.348Z,98780.64
2018-09-28T11:53:08.907Z,98781.55
2018-09-28T11:55:37.453Z,98775.53
2018-09-28T11:58:05.772Z,98769.76
2018-09-28T12:00:34.223Z,98766.30
2018-09-28T12:03:02.760Z,98772.31
2018-09-28T12:05:31.218Z,98766.77
2018-09-28T12:07:59.521Z,98763.66
2018-09-28T12:10:27.834Z,98772.08
2018-09-28T12:12:56.213Z,98772.98
2018-09-28T12:15:24.698Z,98772.77
2018-09-28T12:17:53.096Z,98772.38
2018-09-28T12:20:21.382Z,98763.16
2018-09-28T12:22:49.748Z,98759.33
2018-09-28T12:25:18.356Z,98752.55
2018-09-28T12:27:46.892Z,98750.69
2018-09-28T12:30:15.294Z,98738.88
2018-09-28T12:32:43.807Z,98739.91
2018-09-28T12:35:12.335Z,98739.13
2018-09-28T12:37:40.856Z,98742.39
2018-09-28T12:40:09.383Z,98732.67
2018-09-28T12:42:37.833Z,98734.28
2018-09-28T12:45:06.363Z,98733.23
2018-09-28T12:47:34.817Z,98729.06
2018-09-28T12:50:03.121Z,98730.20
2018-09-28T12:52:31.563Z,98722.38
2018-09-28T12:55:00.720Z,98725.70
2018-09-28T12:57:29.082Z,98727.03
2018-09-28T12:59:57.980Z,98731.62
2018-09-28T13:02:26.671Z,98722.16
2018-09-28T13:04:55.603Z,98717.49
2018-09-28T13:07:23.912Z,98722.20
2018-09-28T13:09:52.474Z,98713.39
2018-09-28T13:12:20.936Z,98712.31
2018-09-28T13:14:49.725Z,98710.19
2018-09-28T13:17:17.974Z,98708.01
2018-09-28T13:19:46.334Z,98711.95
2018-09-28T13:22:14.736Z,98715.81
2018-09-28T13:24:43.293Z,98710.17
2018-09-28T13:27:11.778Z,98700.86
2018-09-28T13:29:40.333Z,98702.97
2018-09-28T13:32:09.078Z,98704.08
2018-09-28T13:34:37.472Z,98704.40
2018-09-28T13:37:06.260Z,98694.66
2018-09-28T13:39:34.595Z,98698.02
2018-09-28T13:42:02.902Z,98690.39
2018-09-28T13:44:31.325Z,98692.28
2018-09-28T13:47:00.629Z,98689.69
2018-09-28T13:49:28.942Z,98690.39
2018-09-28T13:51:57.413Z,98688.97
2018-09-28T13:54:25.737Z,98684.73
2018-09-28T13:56:54.022Z,98686.65
2018-09-28T13:59:22.346Z,98687.86
2018-09-28T14:01:50.838Z,98683.55
2018-09-28T14:04:19.160Z,98678.95
2018-09-28T14:06:47.486Z,98687.86
2018-09-28T14:09:16.317Z,98691.39
2018-09-28T14:11:44.675Z,98690.02
2018-09-28T14:14:13.146Z,98689.55
2018-09-28T14:16:41.827Z,98689.03
2018-09-28T14:19:10.196Z,98695.87
2018-09-28T14:21:38.486Z,98691.30
2018-09-28T14:24:10.127Z,98693.29
2018-09-28T14:26:39.419Z,98699.27
2018-09-28T14:29:07.694Z,98703.83
2018-09-28T14:31:36.068Z,98696.17
2018-09-28T14:34:04.613Z,98690.44
2018-09-28T14:36:33.155Z,98692.56
2018-09-28T14:39:01.836Z,98688.13
2018-09-28T14:41:30.168Z,98688.70
2018-09-28T14:43:58.468Z,98693.45
2018-09-28T14:46:26.835Z,98690.83
2018-09-28T14:48:55.153Z,98689.61
2018-09-28T14:51:23.364Z,98688.44
2018-09-28T14:53:51.701Z,98689.97
2018-09-28T14:56:20.090Z,98693.59
2018-09-28T14:58:48.444Z,98685.48
2018-09-28T15:01:16.823Z,98683.25
2018-09-28T15:03:45.088Z,98688.86
2018-09-28T15:06:13.442Z,98690.46
2018-09-28T15:08:41.797Z,98688.95
2018-09-28T15:11:10.251Z,98686.52
2018-09-28T15:13:38.597Z,98693.48
2018-09-28T15:16:07.287Z,98693.58
2018-09-28T15:18:35.703Z,98690.58
2018-09-28T15:21:04.138Z,98693.33
2018-09-28T15:23:32.402Z,98692.54
2018-09-28T15:26:00.704Z,98693.56
2018-09-28T15:28:29.125Z,98687.52
2018-09-28T15:30:57.458Z,98690.52
2018-09-28T15:33:25.756Z,98683.41
2018-09-28T15:35:54.330Z,98684.81
2018-09-28T15:38:22.629Z,98686.89
2018-09-28T15:40:50.956Z,98690.20
2018-09-28T15:43:19.359Z,98695.57
2018-09-28T15:45:47.712Z,98698.27
2018-09-28T15:48:16.026Z,98698.06
2018-09-28T15:50:44.381Z,98699.96
2018-09-28T15:53:12.709Z,98697.41
2018-09-28T15:55:41.084Z,98701.73
2018-09-28T15:58:09.488Z,98703.19
2018-09-28T16:00:37.954Z,98698.28
2018-09-28T16:03:06.302Z,98706.80
2018-09-28T16:05:35.376Z,98711.47
2018-09-28T16:08:03.759Z,98709.17
2018-09-28T16:10:32.134Z,98711.84
2018-09-28T16:13:00.495Z,98712.27
2018-09-28T16:15:28.976Z,98724.41
2018-09-28T16:17:57.476Z,98721.27
2018-09-28T16:20:26.078Z,98716.16
2018-09-28T16:22:54.478Z,98729.87
2018-09-28T16:25:22.777Z,98727.04
2018-09-28T16:27:51.110Z,98731.94
2018-09-28T16:30:19.873Z,98735.64
2018-09-28T16:32:48.241Z,98738.47
2018-09-28T16:35:16.705Z,98742.60
2018-09-28T16:37:45.029Z,98739.34
2018-09-28T16:40:13.371Z,98734.98
2018-09-28T16:42:41.922Z,98746.61
2018-09-28T16:45:10.420Z,98750.28
2018-09-28T16:47:38.879Z,98753.11
2018-09-28T16:50:07.759Z,98755.92
2018-09-28T16:52:36.600Z,98762.05
2018-09-28T16:55:05.356Z,98770.81
2018-09-28T16:57:34.050Z,98769.20
2018-09-28T17:00:02.345Z,98767.70
2018-09-28T17:02:30.861Z,98771.17
2018-09-28T17:05:00.330Z,98769.25
2018-09-28T17:07:28.749Z,98775.63
2018-09-28T17:09:57.204Z,98784.55
2018-09-28T17:12:25.663Z,98782.85
2018-09-28T17:14:54.736Z,98787.66
2018-09-28T17:17:24.102Z,98789.67
2018-09-28T17:19:52.632Z,98794.41
2018-09-28T17:22:21.041Z,98792.99
2018-09-28T17:24:49.432Z,98793.02
2018-09-28T17:27:18.030Z,98796.60
2018-09-28T17:29:46.334Z,98801.73
2018-09-28T17:32:14.628Z,98804.89
2018-09-28T17:34:42.971Z,98805.81
2018-09-28T17:37:11.267Z,98811.13
2018-09-28T17:39:39.614Z,98818.63
2018-09-28T17:42:07.985Z,98825.40
2018-09-28T17:44:36.296Z,98829.50
2018-09-28T17:47:04.656Z,98834.71
2018-09-28T17:49:33.036Z,98842.24
2018-09-28T17:52:01.344Z,98849.91
2018-09-28T17:54:29.770Z,98855.15
2018-09-28T17:56:58.111Z,98864.13
2018-09-28T17:59:26.322Z,98861.05
2018-09-28T18:01:54.610Z,98868.15
2018-09-28T18:04:22.972Z,98866.67
2018-09-28T18:06:51.258Z,98879.52
2018-09-28T18:09:19.664Z,98883.77
2018-09-28T18:11:48.023Z,98886.78
2018-09-28T18:14:16.531Z,98893.31
2018-09-28T18:16:45.384Z,98897.55
2018-09-28T18:19:13.790Z,98904.59
2018-09-28T18:21:42.350Z,98909.70
2018-09-28T18:24:11.129Z,98918.19
2018-09-28T18:26:39.988Z,98919.16
2018-09-28T18:29:08.568Z,98924.45
2018-09-28T18:31:37.314Z,98927.51
2018-09-28T18:34:05.876Z,98932.44
2018-09-28T18:36:34.270Z,98930.95
2018-09-28T18:39:02.587Z,98941.63
2018-09-28T18:41:31.000Z,98954.14
2018-09-28T18:44:00.423Z,98955.66
2018-09-28T18:46:28.800Z,98959.28
2018-09-28T18:48:57.181Z,98961.56
2018-09-28T18:51:25.527Z,98959.92
2018-09-28T18:53:54.046Z,98978.17
2018-09-28T18:56:22.401Z,98989.63
2018-09-28T18:58:50.790Z,98998.16
2018-09-28T19:01:19.200Z,99014.33
2018-09-28T19:03:47.689Z,99010.87
2018-09-28T19:06:16.102Z,99017.69
2018-09-28T19:08:44.580Z,99028.62
2018-09-28T19:11:13.535Z,99037.08
2018-09-28T19:13:41.827Z,99032.80
2018-09-28T19:16:10.247Z,99039.56
2018-09-28T19:18:38.662Z,99038.47
2018-09-28T19:21:07.062Z,99042.75
2018-09-28T19:23:35.450Z,99052.99
2018-09-28T19:26:03.820Z,99057.73
2018-09-28T19:28:32.566Z,99058.41
2018-09-28T19:31:01.025Z,99068.15
2018-09-28T19:33:30.040Z,99068.77
2018-09-28T19:35:58.308Z,99082.69
2018-09-28T19:38:26.671Z,99074.06
2018-09-28T19:40:55.003Z,99088.38
2018-09-28T19:43:23.322Z,99092.65
2018-09-28T19:45:51.686Z,99089.37
2018-09-28T19:48:20.132Z,99091.73
2018-09-28T19:50:48.522Z,99096.31
2018-09-28T19:53:16.877Z,99112.67
2018-09-28T19:55:45.603Z,99116.98
2018-09-28T19:58:14.101Z,99122.88
2018-09-28T20:00:42.510Z,99126.83
2018-09-28T20:03:10.947Z,99123.20
2018-09-28T20:05:39.452Z,99132.98
2018-09-28T20:08:08.177Z,99136.45
2018-09-28T20:10:36.784Z,99145.65
2018-09-28T20:13:05.022Z,99147.90
2018-09-28T20:15:33.429Z,99153.03
2018-09-28T20:18:02.380Z,99149.92
2018-09-28T20:20:30.716Z,99159.48
2018-09-28T20:22:58.996Z,99162.76
2018-09-28T20:25:27.553Z,99173.80
2018-09-28T20:27:55.892Z,99180.23
2018-09-28T20:30:24.494Z,99190.92
2018-09-28T20:32:52.951Z,99188.69
2018-09-28T20:35:21.229Z,99184.31
2018-09-28T20:37:49.532Z,99189.67
2018-09-28T20:40:17.992Z,99192.48
2018-09-28T20:42:46.320Z,99197.89
2018-09-28T20:45:14.656Z,99201.42
2018-09-28T20:47:43.023Z,99205.46
2018-09-28T20:50:11.315Z,99202.46
2018-09-28T20:52:40.481Z,99200.47
2018-09-28T20:55:08.891Z,99194.17
2018-09-28T20:57:37.302Z,99205.12
2018-09-28T21:00:06.300Z,99202.27
2018-09-28T21:02:34.675Z,99207.78
2018-09-28T21:05:03.013Z,99197.75
2018-09-28T21:07:31.347Z,99204.99
2018-09-28T21:09:59.649Z,99216.73
2018-09-28T21:12:28.071Z,99212.61
2018-09-28T21:14:56.339Z,99208.28
2018-09-28T21:17:24.622Z,99219.07
2018-09-28T21:19:53.048Z,99226.63
2018-09-28T21:22:21.792Z,99224.36
2018-09-28T21:24:50.142Z,99209.32
2018-09-28T21:27:18.684Z,99204.70
2018-09-28T21:29:47.167Z,99197.08
2018-09-28T21:32:15.610Z,99198.69
2018-09-28T21:34:44.135Z,99209.59
2018-09-28T21:37:12.560Z,99198.09
2018-09-28T21:39:40.864Z,99209.98
2018-09-28T21:42:09.440Z,99221.08
2018-09-28T21:44:37.914Z,99215.45
2018-09-28T21:47:06.358Z,99211.67
2018-09-28T21:49:34.796Z,99209.59
2018-09-28T21:52:03.242Z,99209.70
2018-09-28T21:54:31.651Z,99196.57
2018-09-28T21:57:00.124Z,99199.97
2018-09-28T21:59:28.472Z,99204.55
2018-09-28T22:01:56.792Z,99215.01
2018-09-28T22:04:25.124Z,99217.27
2018-09-28T22:06:53.528Z,99226.47
2018-09-28T22:09:21.855Z,99221.15
2018-09-28T22:11:50.160Z,99227.25
2018-09-28T22:14:18.604Z,99233.38
2018-09-28T22:16:47.088Z,99226.77
2018-09-28T22:19:15.613Z,99224.97
2018-09-28T22:21:44.011Z,99229.63
2018-09-28T22:24:12.323Z,99233.63
2018-09-28T22:26:40.639Z,99227.39
2018-09-28T22:29:09.021Z,99222.70
2018-09-28T22:31:37.435Z,99217.70
2018-09-28T22:34:06.080Z,99220.80
2018-09-28T22:36:34.571Z,99215.02
2018-09-28T22:39:03.452Z,99212.38
2018-09-28T22:41:32.333Z,99226.11
2018-09-28T22:44:00.858Z,99234.55
2018-09-28T22:46:29.156Z,99230.35
2018-09-28T22:48:57.412Z,99227.59
2018-09-28T22:51:25.932Z,99240.05
2018-09-28T22:53:54.345Z,99239.34
2018-09-28T22:56:22.780Z,99236.86
2018-09-28T22:58:51.728Z,99241.77
2018-09-28T23:01:20.113Z,99248.23
2018-09-28T23:03:48.452Z,99256.27
2018-09-28T23:06:16.776Z,99258.43
2018-09-28T23:08:45.075Z,99247.40
2018-09-28T23:11:13.387Z,99254.81
2018-09-28T23:13:41.631Z,99262.39
2018-09-28T23:16:10.379Z,99266.56
2018-09-28T23:18:38.638Z,99269.87
2018-09-28T23:21:06.940Z,99273.27
2018-09-28T23:23:35.284Z,99274.41
2018-09-28T23:29:35.671Z,99284.70
2018-09-28T23:32:04.004Z,99283.05
2018-09-28T23:34:32.416Z,99281.11
2018-09-28T23:37:00.825Z,99288.27
2018-09-28T23:39:29.183Z,99288.20
2018-09-28T23:41:57.521Z,99275.33
2018-09-28T23:44:25.820Z,99282.14
2018-09-28T23:46:54.132Z,99285.36
2018-09-28T23:49:22.504Z,99289.73
2018-09-28T23:51:51.189Z,99285.42
2018-09-28T23:54:19.480Z,99278.16
2018-09-28T23:56:47.938Z,99277.75
2018-09-28T23:59:16.404Z,99283.72
